sensor_id;sensor_type;location;lat;lon;timestamp;temperature;humidity
32139;DHT22;18644;48.700;9.210;2022-07-29T00:00:31;23.20;55.50
32139;DHT22;18644;48.700;9.210;2022-07-29T00:02:58;23.10;55.50
32139;DHT22;18644;48.700;9.210;2022-07-29T00:05:25;23.20;55.60
32139;DHT22;18644;48.700;9.210;2022-07-29T00:07:52;23.10;55.50
32139;DHT22;18644;48.700;9.210;2022-07-29T00:10:19;23.10;55.60
32139;DHT22;18644;48.700;9.210;2022-07-29T00:12:47;23.20;55.60
32139;DHT22;18644;48.700;9.210;2022-07-29T00:15:14;23.10;55.70
32139;DHT22;18644;48.700;9.210;2022-07-29T00:17:41;23.10;55.70
32139;DHT22;18644;48.700;9.210;2022-07-29T00:20:09;23.10;55.70
32139;DHT22;18644;48.700;9.210;2022-07-29T00:22:37;23.10;55.80
32139;DHT22;18644;48.700;9.210;2022-07-29T00:25:05;23.10;55.70
32139;DHT22;18644;48.700;9.210;2022-07-29T00:27:33;23.10;55.70
32139;DHT22;18644;48.700;9.210;2022-07-29T00:30:03;23.00;55.60
32139;DHT22;18644;48.700;9.210;2022-07-29T00:32:30;23.00;55.90
32139;DHT22;18644;48.700;9.210;2022-07-29T00:34:57;23.00;55.80
32139;DHT22;18644;48.700;9.210;2022-07-29T00:37:41;23.00;55.70
32139;DHT22;18644;48.700;9.210;2022-07-29T00:40:09;22.90;55.70
32139;DHT22;18644;48.700;9.210;2022-07-29T00:42:42;22.90;55.80
32139;DHT22;18644;48.700;9.210;2022-07-29T00:45:11;22.90;55.90
32139;DHT22;18644;48.700;9.210;2022-07-29T00:47:38;22.80;55.80
32139;DHT22;18644;48.700;9.210;2022-07-29T00:50:07;22.80;55.80
32139;DHT22;18644;48.700;9.210;2022-07-29T00:52:37;22.70;55.90
32139;DHT22;18644;48.700;9.210;2022-07-29T00:55:07;22.70;56.10
32139;DHT22;18644;48.700;9.210;2022-07-29T00:57:36;22.60;56.00
32139;DHT22;18644;48.700;9.210;2022-07-29T01:00:04;22.60;56.10
32139;DHT22;18644;48.700;9.210;2022-07-29T01:02:36;22.60;56.20
32139;DHT22;18644;48.700;9.210;2022-07-29T01:05:04;22.50;56.20
32139;DHT22;18644;48.700;9.210;2022-07-29T01:07:32;22.50;56.20
32139;DHT22;18644;48.700;9.210;2022-07-29T01:10:02;22.40;56.30
32139;DHT22;18644;48.700;9.210;2022-07-29T01:12:30;22.40;56.30
32139;DHT22;18644;48.700;9.210;2022-07-29T01:14:59;22.40;56.40
32139;DHT22;18644;48.700;9.210;2022-07-29T01:17:30;22.30;56.40
32139;DHT22;18644;48.700;9.210;2022-07-29T01:20:08;22.30;56.60
32139;DHT22;18644;48.700;9.210;2022-07-29T01:26:01;22.20;56.80
32139;DHT22;18644;48.700;9.210;2022-07-29T01:28:46;22.20;56.60
32139;DHT22;18644;48.700;9.210;2022-07-29T01:31:20;22.10;56.60
32139;DHT22;18644;48.700;9.210;2022-07-29T01:33:54;22.10;56.60
32139;DHT22;18644;48.700;9.210;2022-07-29T01:36:30;22.10;56.60
32139;DHT22;18644;48.700;9.210;2022-07-29T01:39:05;22.00;56.60
32139;DHT22;18644;48.700;9.210;2022-07-29T01:41:35;22.00;56.70
32139;DHT22;18644;48.700;9.210;2022-07-29T01:44:11;21.90;56.70
32139;DHT22;18644;48.700;9.210;2022-07-29T01:46:45;21.90;56.90
32139;DHT22;18644;48.700;9.210;2022-07-29T01:49:20;21.90;56.90
32139;DHT22;18644;48.700;9.210;2022-07-29T01:51:51;21.80;56.90
32139;DHT22;18644;48.700;9.210;2022-07-29T01:54:23;21.70;56.90
32139;DHT22;18644;48.700;9.210;2022-07-29T01:56:55;21.70;57.00
32139;DHT22;18644;48.700;9.210;2022-07-29T01:59:25;21.70;57.00
32139;DHT22;18644;48.700;9.210;2022-07-29T02:01:54;21.60;57.10
32139;DHT22;18644;48.700;9.210;2022-07-29T02:04:22;21.60;57.20
32139;DHT22;18644;48.700;9.210;2022-07-29T02:06:52;21.60;57.30
32139;DHT22;18644;48.700;9.210;2022-07-29T02:09:22;21.60;57.30
32139;DHT22;18644;48.700;9.210;2022-07-29T02:11:53;21.60;57.40
32139;DHT22;18644;48.700;9.210;2022-07-29T02:14:23;21.60;57.50
32139;DHT22;18644;48.700;9.210;2022-07-29T02:16:53;21.50;57.50
32139;DHT22;18644;48.700;9.210;2022-07-29T02:19:21;21.50;57.70
32139;DHT22;18644;48.700;9.210;2022-07-29T02:21:51;21.50;57.70
32139;DHT22;18644;48.700;9.210;2022-07-29T02:24:21;21.40;58.30
32139;DHT22;18644;48.700;9.210;2022-07-29T02:26:50;21.40;57.90
32139;DHT22;18644;48.700;9.210;2022-07-29T02:29:21;21.40;58.00
32139;DHT22;18644;48.700;9.210;2022-07-29T02:31:52;21.40;58.20
32139;DHT22;18644;48.700;9.210;2022-07-29T02:34:20;21.40;58.20
32139;DHT22;18644;48.700;9.210;2022-07-29T02:36:49;21.40;58.30
32139;DHT22;18644;48.700;9.210;2022-07-29T02:39:17;21.40;58.40
32139;DHT22;18644;48.700;9.210;2022-07-29T02:41:47;21.40;58.40
32139;DHT22;18644;48.700;9.210;2022-07-29T02:44:16;21.40;58.50
32139;DHT22;18644;48.700;9.210;2022-07-29T02:46:56;21.40;58.50
32139;DHT22;18644;48.700;9.210;2022-07-29T02:49:34;21.40;58.50
32139;DHT22;18644;48.700;9.210;2022-07-29T02:52:04;21.40;58.60
32139;DHT22;18644;48.700;9.210;2022-07-29T02:54:39;21.30;58.50
32139;DHT22;18644;48.700;9.210;2022-07-29T02:57:13;21.30;58.50
32139;DHT22;18644;48.700;9.210;2022-07-29T02:59:49;21.30;58.60
32139;DHT22;18644;48.700;9.210;2022-07-29T03:02:20;21.30;58.60
32139;DHT22;18644;48.700;9.210;2022-07-29T03:04:48;21.30;58.10
32139;DHT22;18644;48.700;9.210;2022-07-29T03:07:18;21.30;58.30
32139;DHT22;18644;48.700;9.210;2022-07-29T03:09:47;21.30;58.50
32139;DHT22;18644;48.700;9.210;2022-07-29T03:12:14;21.20;58.60
32139;DHT22;18644;48.700;9.210;2022-07-29T03:14:42;21.20;58.80
32139;DHT22;18644;48.700;9.210;2022-07-29T03:17:10;21.20;58.90
32139;DHT22;18644;48.700;9.210;2022-07-29T03:19:39;21.20;59.00
32139;DHT22;18644;48.700;9.210;2022-07-29T03:22:06;21.20;59.00
32139;DHT22;18644;48.700;9.210;2022-07-29T03:24:35;21.20;58.90
32139;DHT22;18644;48.700;9.210;2022-07-29T03:27:03;21.20;58.90
32139;DHT22;18644;48.700;9.210;2022-07-29T03:29:31;21.10;59.10
32139;DHT22;18644;48.700;9.210;2022-07-29T03:31:58;21.10;59.10
32139;DHT22;18644;48.700;9.210;2022-07-29T03:34:25;21.20;59.20
32139;DHT22;18644;48.700;9.210;2022-07-29T03:36:53;21.20;59.20
32139;DHT22;18644;48.700;9.210;2022-07-29T03:39:23;21.10;59.00
32139;DHT22;18644;48.700;9.210;2022-07-29T03:41:53;21.10;59.00
32139;DHT22;18644;48.700;9.210;2022-07-29T03:44:22;21.10;59.10
32139;DHT22;18644;48.700;9.210;2022-07-29T03:46:50;21.00;58.50
32139;DHT22;18644;48.700;9.210;2022-07-29T03:49:20;21.00;58.60
32139;DHT22;18644;48.700;9.210;2022-07-29T03:51:48;21.00;58.70
32139;DHT22;18644;48.700;9.210;2022-07-29T03:54:16;20.90;58.70
32139;DHT22;18644;48.700;9.210;2022-07-29T03:56:46;20.90;58.80
32139;DHT22;18644;48.700;9.210;2022-07-29T03:59:15;20.90;59.00
32139;DHT22;18644;48.700;9.210;2022-07-29T04:01:46;20.80;59.00
32139;DHT22;18644;48.700;9.210;2022-07-29T04:04:14;20.80;58.90
32139;DHT22;18644;48.700;9.210;2022-07-29T04:06:42;20.70;58.90
32139;DHT22;18644;48.700;9.210;2022-07-29T04:09:10;20.70;58.80
32139;DHT22;18644;48.700;9.210;2022-07-29T04:11:40;20.70;59.00
32139;DHT22;18644;48.700;9.210;2022-07-29T04:14:08;20.60;59.20
32139;DHT22;18644;48.700;9.210;2022-07-29T04:16:34;20.60;59.20
32139;DHT22;18644;48.700;9.210;2022-07-29T04:19:01;20.60;59.40
32139;DHT22;18644;48.700;9.210;2022-07-29T04:21:28;20.50;59.40
32139;DHT22;18644;48.700;9.210;2022-07-29T04:23:55;20.50;59.50
32139;DHT22;18644;48.700;9.210;2022-07-29T04:26:22;20.50;59.50
32139;DHT22;18644;48.700;9.210;2022-07-29T04:28:50;20.50;59.80
32139;DHT22;18644;48.700;9.210;2022-07-29T04:31:17;20.50;60.00
32139;DHT22;18644;48.700;9.210;2022-07-29T04:33:44;20.50;60.20
32139;DHT22;18644;48.700;9.210;2022-07-29T04:36:11;20.50;61.20
32139;DHT22;18644;48.700;9.210;2022-07-29T04:38:38;20.50;60.60
32139;DHT22;18644;48.700;9.210;2022-07-29T04:41:05;20.50;60.80
32139;DHT22;18644;48.700;9.210;2022-07-29T04:43:34;20.50;60.90
32139;DHT22;18644;48.700;9.210;2022-07-29T04:46:02;20.50;61.00
32139;DHT22;18644;48.700;9.210;2022-07-29T04:48:29;20.50;61.20
32139;DHT22;18644;48.700;9.210;2022-07-29T04:50:56;20.60;61.40
32139;DHT22;18644;48.700;9.210;2022-07-29T04:53:24;20.60;61.40
32139;DHT22;18644;48.700;9.210;2022-07-29T04:55:53;20.60;61.60
32139;DHT22;18644;48.700;9.210;2022-07-29T04:58:20;20.70;61.80
32139;DHT22;18644;48.700;9.210;2022-07-29T05:00:48;20.70;61.80
32139;DHT22;18644;48.700;9.210;2022-07-29T05:03:16;20.80;61.80
32139;DHT22;18644;48.700;9.210;2022-07-29T05:05:43;20.80;61.90
32139;DHT22;18644;48.700;9.210;2022-07-29T05:08:10;20.90;62.00
32139;DHT22;18644;48.700;9.210;2022-07-29T05:10:37;20.90;62.20
32139;DHT22;18644;48.700;9.210;2022-07-29T05:13:05;21.00;62.30
32139;DHT22;18644;48.700;9.210;2022-07-29T05:15:33;21.00;62.40
32139;DHT22;18644;48.700;9.210;2022-07-29T05:18:00;21.10;62.50
32139;DHT22;18644;48.700;9.210;2022-07-29T05:20:29;21.30;62.60
32139;DHT22;18644;48.700;9.210;2022-07-29T05:22:56;21.30;62.50
32139;DHT22;18644;48.700;9.210;2022-07-29T05:25:24;21.40;62.40
32139;DHT22;18644;48.700;9.210;2022-07-29T05:27:52;21.50;62.10
32139;DHT22;18644;48.700;9.210;2022-07-29T05:30:20;21.60;62.10
32139;DHT22;18644;48.700;9.210;2022-07-29T05:32:47;21.70;62.40
32139;DHT22;18644;48.700;9.210;2022-07-29T05:35:14;21.80;62.30
32139;DHT22;18644;48.700;9.210;2022-07-29T05:37:43;21.90;62.10
32139;DHT22;18644;48.700;9.210;2022-07-29T05:40:10;22.00;62.10
32139;DHT22;18644;48.700;9.210;2022-07-29T05:42:37;22.10;61.90
32139;DHT22;18644;48.700;9.210;2022-07-29T05:45:05;22.10;61.70
32139;DHT22;18644;48.700;9.210;2022-07-29T05:47:32;22.30;61.60
32139;DHT22;18644;48.700;9.210;2022-07-29T05:49:59;22.40;61.50
32139;DHT22;18644;48.700;9.210;2022-07-29T05:52:26;22.40;61.50
32139;DHT22;18644;48.700;9.210;2022-07-29T05:54:54;22.50;61.50
32139;DHT22;18644;48.700;9.210;2022-07-29T05:57:23;22.60;61.30
32139;DHT22;18644;48.700;9.210;2022-07-29T05:59:50;22.70;61.00
32139;DHT22;18644;48.700;9.210;2022-07-29T06:02:18;22.80;61.10
32139;DHT22;18644;48.700;9.210;2022-07-29T06:04:45;22.90;61.00
32139;DHT22;18644;48.700;9.210;2022-07-29T06:07:12;23.00;61.00
32139;DHT22;18644;48.700;9.210;2022-07-29T06:09:39;23.10;60.70
32139;DHT22;18644;48.700;9.210;2022-07-29T06:12:08;23.10;61.20
32139;DHT22;18644;48.700;9.210;2022-07-29T06:14:35;23.20;60.20
32139;DHT22;18644;48.700;9.210;2022-07-29T06:17:03;23.30;60.00
32139;DHT22;18644;48.700;9.210;2022-07-29T06:19:30;23.40;59.80
32139;DHT22;18644;48.700;9.210;2022-07-29T06:21:57;23.40;59.70
32139;DHT22;18644;48.700;9.210;2022-07-29T06:24:24;23.50;60.50
32139;DHT22;18644;48.700;9.210;2022-07-29T06:26:51;23.50;59.70
32139;DHT22;18644;48.700;9.210;2022-07-29T06:29:19;23.60;59.60
32139;DHT22;18644;48.700;9.210;2022-07-29T06:31:46;23.70;59.50
32139;DHT22;18644;48.700;9.210;2022-07-29T06:34:13;23.80;59.30
32139;DHT22;18644;48.700;9.210;2022-07-29T06:36:40;23.90;59.20
32139;DHT22;18644;48.700;9.210;2022-07-29T06:39:08;24.00;59.30
32139;DHT22;18644;48.700;9.210;2022-07-29T06:41:35;24.00;59.30
32139;DHT22;18644;48.700;9.210;2022-07-29T06:44:02;24.20;59.30
32139;DHT22;18644;48.700;9.210;2022-07-29T06:46:31;24.30;59.10
32139;DHT22;18644;48.700;9.210;2022-07-29T06:48:58;24.50;59.00
32139;DHT22;18644;48.700;9.210;2022-07-29T06:51:26;24.60;58.90
32139;DHT22;18644;48.700;9.210;2022-07-29T06:53:53;24.80;58.60
32139;DHT22;18644;48.700;9.210;2022-07-29T06:56:22;25.00;58.10
32139;DHT22;18644;48.700;9.210;2022-07-29T06:58:49;25.10;57.90
32139;DHT22;18644;48.700;9.210;2022-07-29T07:01:16;25.20;57.60
32139;DHT22;18644;48.700;9.210;2022-07-29T07:03:44;25.40;57.20
32139;DHT22;18644;48.700;9.210;2022-07-29T07:06:11;25.50;56.90
32139;DHT22;18644;48.700;9.210;2022-07-29T07:08:38;25.60;56.60
32139;DHT22;18644;48.700;9.210;2022-07-29T07:11:05;25.60;56.20
32139;DHT22;18644;48.700;9.210;2022-07-29T07:13:32;25.70;56.00
32139;DHT22;18644;48.700;9.210;2022-07-29T07:16:00;25.70;55.90
32139;DHT22;18644;48.700;9.210;2022-07-29T07:18:27;25.70;55.90
32139;DHT22;18644;48.700;9.210;2022-07-29T07:20:56;25.80;56.20
32139;DHT22;18644;48.700;9.210;2022-07-29T07:23:23;25.90;56.10
32139;DHT22;18644;48.700;9.210;2022-07-29T07:25:50;26.00;56.10
32139;DHT22;18644;48.700;9.210;2022-07-29T07:28:18;26.00;55.80
32139;DHT22;18644;48.700;9.210;2022-07-29T07:30:45;26.10;55.40
32139;DHT22;18644;48.700;9.210;2022-07-29T07:33:13;26.20;55.10
32139;DHT22;18644;48.700;9.210;2022-07-29T07:35:39;26.20;54.90
32139;DHT22;18644;48.700;9.210;2022-07-29T07:38:08;26.20;54.90
32139;DHT22;18644;48.700;9.210;2022-07-29T07:40:35;26.30;54.60
32139;DHT22;18644;48.700;9.210;2022-07-29T07:43:02;26.20;54.50
32139;DHT22;18644;48.700;9.210;2022-07-29T07:45:29;26.30;54.90
32139;DHT22;18644;48.700;9.210;2022-07-29T07:47:57;26.30;55.30
32139;DHT22;18644;48.700;9.210;2022-07-29T07:50:25;26.40;55.50
32139;DHT22;18644;48.700;9.210;2022-07-29T07:52:53;26.50;55.50
32139;DHT22;18644;48.700;9.210;2022-07-29T07:55:24;26.60;55.50
32139;DHT22;18644;48.700;9.210;2022-07-29T07:57:51;26.80;55.50
32139;DHT22;18644;48.700;9.210;2022-07-29T08:00:19;26.90;55.50
32139;DHT22;18644;48.700;9.210;2022-07-29T08:02:46;27.10;55.50
32139;DHT22;18644;48.700;9.210;2022-07-29T08:05:13;27.20;55.30
32139;DHT22;18644;48.700;9.210;2022-07-29T08:07:43;27.40;55.00
32139;DHT22;18644;48.700;9.210;2022-07-29T08:10:11;27.60;54.70
32139;DHT22;18644;48.700;9.210;2022-07-29T08:12:40;27.70;54.70
32139;DHT22;18644;48.700;9.210;2022-07-29T08:15:08;27.90;54.40
32139;DHT22;18644;48.700;9.210;2022-07-29T08:17:35;28.10;54.40
32139;DHT22;18644;48.700;9.210;2022-07-29T08:20:03;28.30;54.50
32139;DHT22;18644;48.700;9.210;2022-07-29T08:22:31;28.40;53.70
32139;DHT22;18644;48.700;9.210;2022-07-29T08:24:58;28.60;53.40
32139;DHT22;18644;48.700;9.210;2022-07-29T08:27:25;28.70;53.10
32139;DHT22;18644;48.700;9.210;2022-07-29T08:29:55;28.80;52.40
32139;DHT22;18644;48.700;9.210;2022-07-29T08:32:22;29.00;52.00
32139;DHT22;18644;48.700;9.210;2022-07-29T08:34:49;29.00;52.10
32139;DHT22;18644;48.700;9.210;2022-07-29T08:37:16;29.10;52.10
32139;DHT22;18644;48.700;9.210;2022-07-29T08:39:43;29.30;52.00
32139;DHT22;18644;48.700;9.210;2022-07-29T08:42:11;29.40;51.60
32139;DHT22;18644;48.700;9.210;2022-07-29T08:44:38;29.60;51.40
32139;DHT22;18644;48.700;9.210;2022-07-29T08:47:07;29.70;51.40
32139;DHT22;18644;48.700;9.210;2022-07-29T08:49:34;29.80;51.00
32139;DHT22;18644;48.700;9.210;2022-07-29T08:52:02;30.00;50.80
32139;DHT22;18644;48.700;9.210;2022-07-29T08:54:29;30.10;50.30
32139;DHT22;18644;48.700;9.210;2022-07-29T08:56:57;30.20;50.10
32139;DHT22;18644;48.700;9.210;2022-07-29T08:59:25;30.30;50.20
32139;DHT22;18644;48.700;9.210;2022-07-29T09:01:54;30.40;50.00
32139;DHT22;18644;48.700;9.210;2022-07-29T09:04:24;30.50;49.30
32139;DHT22;18644;48.700;9.210;2022-07-29T09:06:54;30.60;49.00
32139;DHT22;18644;48.700;9.210;2022-07-29T09:09:23;30.80;49.40
32139;DHT22;18644;48.700;9.210;2022-07-29T09:11:50;30.90;48.50
32139;DHT22;18644;48.700;9.210;2022-07-29T09:14:18;30.90;47.10
32139;DHT22;18644;48.700;9.210;2022-07-29T09:16:47;31.00;46.60
32139;DHT22;18644;48.700;9.210;2022-07-29T09:19:28;30.90;46.80
32139;DHT22;18644;48.700;9.210;2022-07-29T09:21:57;31.00;46.60
32139;DHT22;18644;48.700;9.210;2022-07-29T09:27:20;31.20;47.00
32139;DHT22;18644;48.700;9.210;2022-07-29T09:29:55;31.30;46.90
32139;DHT22;18644;48.700;9.210;2022-07-29T09:32:24;31.40;46.90
32139;DHT22;18644;48.700;9.210;2022-07-29T09:35:14;31.50;46.60
32139;DHT22;18644;48.700;9.210;2022-07-29T09:37:43;31.60;45.20
32139;DHT22;18644;48.700;9.210;2022-07-29T09:40:14;31.70;46.20
32139;DHT22;18644;48.700;9.210;2022-07-29T09:42:42;31.90;46.30
32139;DHT22;18644;48.700;9.210;2022-07-29T09:45:11;32.00;46.60
32139;DHT22;18644;48.700;9.210;2022-07-29T09:47:43;32.10;46.10
32139;DHT22;18644;48.700;9.210;2022-07-29T09:50:13;32.20;45.10
32139;DHT22;18644;48.700;9.210;2022-07-29T09:52:48;32.30;45.10
32139;DHT22;18644;48.700;9.210;2022-07-29T09:55:16;32.40;44.90
32139;DHT22;18644;48.700;9.210;2022-07-29T09:57:44;32.50;45.00
32139;DHT22;18644;48.700;9.210;2022-07-29T10:00:13;32.50;44.80
32139;DHT22;18644;48.700;9.210;2022-07-29T10:02:43;32.50;44.10
32139;DHT22;18644;48.700;9.210;2022-07-29T10:05:20;32.50;44.40
32139;DHT22;18644;48.700;9.210;2022-07-29T10:07:49;32.60;44.60
32139;DHT22;18644;48.700;9.210;2022-07-29T10:10:22;32.70;44.80
32139;DHT22;18644;48.700;9.210;2022-07-29T10:12:52;32.80;44.70
32139;DHT22;18644;48.700;9.210;2022-07-29T10:15:22;33.00;44.30
32139;DHT22;18644;48.700;9.210;2022-07-29T10:17:51;33.30;44.20
32139;DHT22;18644;48.700;9.210;2022-07-29T10:20:20;33.50;43.20
32139;DHT22;18644;48.700;9.210;2022-07-29T10:22:48;33.60;43.10
32139;DHT22;18644;48.700;9.210;2022-07-29T10:25:16;33.80;43.50
32139;DHT22;18644;48.700;9.210;2022-07-29T10:27:44;34.00;43.60
32139;DHT22;18644;48.700;9.210;2022-07-29T10:30:14;34.20;43.20
32139;DHT22;18644;48.700;9.210;2022-07-29T10:35:58;34.60;41.80
32139;DHT22;18644;48.700;9.210;2022-07-29T10:38:42;34.70;41.00
32139;DHT22;18644;48.700;9.210;2022-07-29T10:41:21;34.80;40.50
32139;DHT22;18644;48.700;9.210;2022-07-29T10:44:01;34.80;40.50
32139;DHT22;18644;48.700;9.210;2022-07-29T10:46:35;34.80;40.40
32139;DHT22;18644;48.700;9.210;2022-07-29T10:49:10;34.70;39.80
32139;DHT22;18644;48.700;9.210;2022-07-29T10:51:55;34.60;39.50
32139;DHT22;18644;48.700;9.210;2022-07-29T10:54:45;34.60;39.60
32139;DHT22;18644;48.700;9.210;2022-07-29T10:57:24;34.50;39.30
32139;DHT22;18644;48.700;9.210;2022-07-29T11:00:27;34.40;39.50
32139;DHT22;18644;48.700;9.210;2022-07-29T11:02:56;34.20;38.70
32139;DHT22;18644;48.700;9.210;2022-07-29T11:05:24;34.10;39.00
32139;DHT22;18644;48.700;9.210;2022-07-29T11:10:47;33.80;39.00
32139;DHT22;18644;48.700;9.210;2022-07-29T11:13:45;33.50;38.40
32139;DHT22;18644;48.700;9.210;2022-07-29T11:16:13;33.20;36.50
32139;DHT22;18644;48.700;9.210;2022-07-29T11:21:46;32.20;37.80
32139;DHT22;18644;48.700;9.210;2022-07-29T11:24:18;31.60;38.20
32139;DHT22;18644;48.700;9.210;2022-07-29T11:27:11;31.00;38.40
32139;DHT22;18644;48.700;9.210;2022-07-29T11:29:53;30.30;38.70
32139;DHT22;18644;48.700;9.210;2022-07-29T11:32:22;29.70;39.30
32139;DHT22;18644;48.700;9.210;2022-07-29T11:35:12;29.20;39.40
32139;DHT22;18644;48.700;9.210;2022-07-29T11:37:41;28.60;39.70
32139;DHT22;18644;48.700;9.210;2022-07-29T11:40:11;28.10;40.00
32139;DHT22;18644;48.700;9.210;2022-07-29T11:42:45;27.70;40.80
32139;DHT22;18644;48.700;9.210;2022-07-29T11:45:21;27.30;41.20
32139;DHT22;18644;48.700;9.210;2022-07-29T11:47:55;27.00;42.30
32139;DHT22;18644;48.700;9.210;2022-07-29T11:50:33;26.70;42.90
32139;DHT22;18644;48.700;9.210;2022-07-29T11:53:02;26.40;43.10
32139;DHT22;18644;48.700;9.210;2022-07-29T11:55:31;26.20;43.70
32139;DHT22;18644;48.700;9.210;2022-07-29T11:58:01;26.00;44.90
32139;DHT22;18644;48.700;9.210;2022-07-29T12:00:30;25.90;45.70
32139;DHT22;18644;48.700;9.210;2022-07-29T12:03:01;25.80;46.40
32139;DHT22;18644;48.700;9.210;2022-07-29T12:05:32;25.70;46.80
32139;DHT22;18644;48.700;9.210;2022-07-29T12:08:12;25.60;47.00
32139;DHT22;18644;48.700;9.210;2022-07-29T12:10:42;25.60;48.00
32139;DHT22;18644;48.700;9.210;2022-07-29T12:13:11;25.50;48.30
32139;DHT22;18644;48.700;9.210;2022-07-29T12:15:38;25.50;48.50
32139;DHT22;18644;48.700;9.210;2022-07-29T12:18:10;25.50;48.60
32139;DHT22;18644;48.700;9.210;2022-07-29T12:20:38;25.40;49.40
32139;DHT22;18644;48.700;9.210;2022-07-29T12:23:06;25.40;49.70
32139;DHT22;18644;48.700;9.210;2022-07-29T12:25:35;25.40;50.20
32139;DHT22;18644;48.700;9.210;2022-07-29T12:28:08;25.40;50.50
32139;DHT22;18644;48.700;9.210;2022-07-29T12:30:38;25.40;50.90
32139;DHT22;18644;48.700;9.210;2022-07-29T12:33:20;25.40;50.80
32139;DHT22;18644;48.700;9.210;2022-07-29T12:35:50;25.40;50.60
32139;DHT22;18644;48.700;9.210;2022-07-29T12:38:19;25.30;50.00
32139;DHT22;18644;48.700;9.210;2022-07-29T12:40:47;25.30;50.30
32139;DHT22;18644;48.700;9.210;2022-07-29T12:43:19;25.20;50.70
32139;DHT22;18644;48.700;9.210;2022-07-29T12:45:49;25.20;51.40
32139;DHT22;18644;48.700;9.210;2022-07-29T12:48:16;25.20;51.70
32139;DHT22;18644;48.700;9.210;2022-07-29T12:50:54;25.20;51.80
32139;DHT22;18644;48.700;9.210;2022-07-29T12:53:22;25.20;52.50
32139;DHT22;18644;48.700;9.210;2022-07-29T12:55:51;25.20;52.60
32139;DHT22;18644;48.700;9.210;2022-07-29T12:58:33;25.20;52.90
32139;DHT22;18644;48.700;9.210;2022-07-29T13:01:06;25.20;53.30
32139;DHT22;18644;48.700;9.210;2022-07-29T13:03:50;25.30;53.40
32139;DHT22;18644;48.700;9.210;2022-07-29T13:06:32;25.30;53.40
32139;DHT22;18644;48.700;9.210;2022-07-29T13:09:07;25.40;53.50
32139;DHT22;18644;48.700;9.210;2022-07-29T13:11:38;25.40;53.40
32139;DHT22;18644;48.700;9.210;2022-07-29T13:14:09;25.50;53.30
32139;DHT22;18644;48.700;9.210;2022-07-29T13:19:36;25.50;52.80
32139;DHT22;18644;48.700;9.210;2022-07-29T13:22:06;25.40;52.90
32139;DHT22;18644;48.700;9.210;2022-07-29T13:24:33;25.40;52.20
32139;DHT22;18644;48.700;9.210;2022-07-29T13:27:00;25.30;52.00
32139;DHT22;18644;48.700;9.210;2022-07-29T13:29:28;25.20;51.70
32139;DHT22;18644;48.700;9.210;2022-07-29T13:31:55;25.20;51.10
32139;DHT22;18644;48.700;9.210;2022-07-29T13:34:22;25.10;51.10
32139;DHT22;18644;48.700;9.210;2022-07-29T13:36:49;25.00;51.40
32139;DHT22;18644;48.700;9.210;2022-07-29T13:39:16;25.00;52.00
32139;DHT22;18644;48.700;9.210;2022-07-29T13:41:43;25.00;52.70
32139;DHT22;18644;48.700;9.210;2022-07-29T13:44:10;24.90;53.30
32139;DHT22;18644;48.700;9.210;2022-07-29T13:46:38;25.00;53.70
32139;DHT22;18644;48.700;9.210;2022-07-29T13:49:05;25.00;53.70
32139;DHT22;18644;48.700;9.210;2022-07-29T13:51:32;25.00;53.80
32139;DHT22;18644;48.700;9.210;2022-07-29T13:53:59;25.00;54.40
32139;DHT22;18644;48.700;9.210;2022-07-29T13:56:26;25.10;54.70
32139;DHT22;18644;48.700;9.210;2022-07-29T13:58:53;25.10;55.40
32139;DHT22;18644;48.700;9.210;2022-07-29T14:01:20;25.20;56.30
32139;DHT22;18644;48.700;9.210;2022-07-29T14:03:48;25.30;56.70
32139;DHT22;18644;48.700;9.210;2022-07-29T14:06:15;25.50;57.00
32139;DHT22;18644;48.700;9.210;2022-07-29T14:08:42;25.60;57.00
32139;DHT22;18644;48.700;9.210;2022-07-29T14:11:09;25.70;56.90
32139;DHT22;18644;48.700;9.210;2022-07-29T14:13:36;25.80;56.50
32139;DHT22;18644;48.700;9.210;2022-07-29T14:16:03;25.90;56.60
32139;DHT22;18644;48.700;9.210;2022-07-29T14:18:30;26.00;57.20
32139;DHT22;18644;48.700;9.210;2022-07-29T14:20:58;26.10;57.50
32139;DHT22;18644;48.700;9.210;2022-07-29T14:23:25;26.20;57.40
32139;DHT22;18644;48.700;9.210;2022-07-29T14:25:52;26.30;57.10
32139;DHT22;18644;48.700;9.210;2022-07-29T14:28:19;26.50;57.20
32139;DHT22;18644;48.700;9.210;2022-07-29T14:30:46;26.50;56.90
32139;DHT22;18644;48.700;9.210;2022-07-29T14:33:13;26.60;56.80
32139;DHT22;18644;48.700;9.210;2022-07-29T14:35:40;26.70;56.70
32139;DHT22;18644;48.700;9.210;2022-07-29T14:38:08;26.80;56.70
32139;DHT22;18644;48.700;9.210;2022-07-29T14:40:35;26.90;56.70
32139;DHT22;18644;48.700;9.210;2022-07-29T14:43:02;27.00;56.70
32139;DHT22;18644;48.700;9.210;2022-07-29T14:45:29;27.10;56.20
32139;DHT22;18644;48.700;9.210;2022-07-29T14:47:56;27.20;56.00
32139;DHT22;18644;48.700;9.210;2022-07-29T14:50:25;27.20;56.10
32139;DHT22;18644;48.700;9.210;2022-07-29T14:52:52;27.30;56.00
32139;DHT22;18644;48.700;9.210;2022-07-29T14:55:21;27.40;55.90
32139;DHT22;18644;48.700;9.210;2022-07-29T14:57:48;27.40;55.70
32139;DHT22;18644;48.700;9.210;2022-07-29T15:00:15;27.40;55.60
32139;DHT22;18644;48.700;9.210;2022-07-29T15:02:43;27.50;55.60
32139;DHT22;18644;48.700;9.210;2022-07-29T15:05:10;27.50;55.50
32139;DHT22;18644;48.700;9.210;2022-07-29T15:07:37;27.50;55.00
32139;DHT22;18644;48.700;9.210;2022-07-29T15:10:05;27.60;54.20
32139;DHT22;18644;48.700;9.210;2022-07-29T15:12:34;27.60;53.70
32139;DHT22;18644;48.700;9.210;2022-07-29T15:15:00;27.50;53.40
32139;DHT22;18644;48.700;9.210;2022-07-29T15:17:27;27.50;53.20
32139;DHT22;18644;48.700;9.210;2022-07-29T15:19:54;27.40;52.90
32139;DHT22;18644;48.700;9.210;2022-07-29T15:22:21;27.40;53.20
32139;DHT22;18644;48.700;9.210;2022-07-29T15:24:48;27.30;53.00
32139;DHT22;18644;48.700;9.210;2022-07-29T15:27:15;27.30;53.00
32139;DHT22;18644;48.700;9.210;2022-07-29T15:29:44;27.20;53.20
32139;DHT22;18644;48.700;9.210;2022-07-29T15:32:11;27.20;53.70
32139;DHT22;18644;48.700;9.210;2022-07-29T15:34:39;27.20;53.80
32139;DHT22;18644;48.700;9.210;2022-07-29T15:37:06;27.20;53.70
32139;DHT22;18644;48.700;9.210;2022-07-29T15:39:33;27.20;53.90
32139;DHT22;18644;48.700;9.210;2022-07-29T15:42:00;27.20;53.70
32139;DHT22;18644;48.700;9.210;2022-07-29T15:44:27;27.20;53.90
32139;DHT22;18644;48.700;9.210;2022-07-29T15:46:55;27.20;54.20
32139;DHT22;18644;48.700;9.210;2022-07-29T15:49:33;27.20;54.40
32139;DHT22;18644;48.700;9.210;2022-07-29T15:52:03;27.30;54.50
32139;DHT22;18644;48.700;9.210;2022-07-29T15:54:33;27.20;54.70
32139;DHT22;18644;48.700;9.210;2022-07-29T15:57:01;27.30;54.70
32139;DHT22;18644;48.700;9.210;2022-07-29T15:59:28;27.30;54.70
32139;DHT22;18644;48.700;9.210;2022-07-29T16:01:56;27.30;54.80